Strona główna
METAR-TAF:

METAR-TAF

Lotnisko :

Port lotniczy Kopenhaga-Kastrup

Kopenhaga, Dania

Szerokość geograficzna: 55-37N, Długość geograficzna: 012-39E, wysokość: 5 m

Aktualna obserwacja pogody

Raport powstał 13 minut temu, godzina 05:20 UTC
Wiatr 6 kt od północno-północny wschód
Temperatura 15°C
Wilgotność 59%
Ciśnienie 1028 hPa
Widzialność 10 km lub więcej

METAR: EKCH 010520Z AUTO 02006KT 9999 NCD 15/07 Q1028 NOSIG

czas: 07:33 (05:33 UTC)

Prognoza

Raport powstał 6 godziny i 31 minut temu, godzina 23:02 UTC
Prognoza ważna od 01 godzina 00 UTC do 01 godzina 24 UTC
Wiatr 5 kt od północ
Widzialność 10 km lub więcej
Brak chmur poniżej 1500 m i brak chmur cumulonimbus

TAF: EKCH 312302Z 0100/0124 01005KT CAVOK

Obserwacja i prognoza pogody dla ponad 4000 lotnisk (raport METAR i TAF).

Dostępne stacje oznaczono żółtymi i czerwonymi punktami na mapie.

Najedź kursorem aby zobaczyć nazwę stacji.

Kliknij aby zobaczyć obserwacje i prognozy pogody.

Aby zmienić mapę: kliknij na zielony przycisk z czarnym krzyżykiem, aby powiększyć; na zielony przycisk z myślnikiem, aby pomniejszyć; na zielone strzałki, aby przejść do map sąsiednich.


METAR-TAF: